Time;durP1;ratioP1;P1;durP2;ratioP2;P2;SDS_P1;SDS_P2;PMS_P1;PMS_P2;Temp;Humidity;BMP_temperature;BMP_pressure;BME280_temperature;BME280_humidity;BME280_pressure;Samples;Min_cycle;Max_cycle;Signal;HPM_P1;HPM_P2
2023/10/27 00:00:57;;;;;;;4.60;2.33;;;12.50;99.90;;;;;;5024819;28;20245;-66
2023/10/27 00:03:26;;;;;;;3.33;1.83;;;12.40;99.90;;;;;;5019378;28;20209;-64
2023/10/27 00:05:54;;;;;;;3.63;2.17;;;12.50;99.90;;;;;;5033027;28;20177;-65
2023/10/27 00:08:19;;;;;;;5.43;1.88;;;12.50;99.90;;;;;;5029828;28;20182;-67
2023/10/27 00:10:45;;;;;;;3.47;1.83;;;12.50;99.90;;;;;;5023873;28;20212;-67
2023/10/27 00:13:13;;;;;;;2.83;2.08;;;12.50;99.90;;;;;;5034275;28;20284;-67
2023/10/27 00:15:38;;;;;;;5.15;2.00;;;12.50;99.90;;;;;;5032338;28;20221;-66
2023/10/27 00:18:04;;;;;;;4.55;2.35;;;12.50;99.90;;;;;;5034219;28;20224;-68
2023/10/27 00:20:32;;;;;;;2.72;2.00;;;12.50;99.90;;;;;;5025278;28;20190;-66
2023/10/27 00:22:58;;;;;;;4.53;2.33;;;12.50;99.90;;;;;;5032166;28;20204;-67
2023/10/27 00:25:27;;;;;;;3.78;2.20;;;12.50;99.90;;;;;;5019428;28;20194;-67
2023/10/27 00:27:52;;;;;;;4.80;2.30;;;12.50;99.90;;;;;;5020164;28;20248;-66
2023/10/27 00:30:18;;;;;;;2.35;1.90;;;12.50;99.90;;;;;;5032836;28;20206;-67
2023/10/27 00:32:44;;;;;;;3.47;1.90;;;12.50;99.90;;;;;;5024687;28;20263;-67
2023/10/27 00:35:12;;;;;;;4.03;2.03;;;12.50;99.90;;;;;;5029005;28;20286;-67
2023/10/27 00:37:38;;;;;;;4.85;2.00;;;12.50;99.90;;;;;;5028341;28;20224;-68
2023/10/27 00:40:04;;;;;;;3.40;1.90;;;12.60;99.90;;;;;;5020265;28;20186;-67
2023/10/27 00:42:30;;;;;;;3.47;1.88;;;12.60;99.90;;;;;;5032331;28;20235;-68
2023/10/27 00:44:58;;;;;;;5.32;2.20;;;12.60;99.90;;;;;;5028253;28;20166;-65
2023/10/27 00:47:24;;;;;;;3.05;2.10;;;12.60;99.90;;;;;;5022903;28;20174;-67
2023/10/27 00:49:51;;;;;;;3.25;2.03;;;12.60;99.90;;;;;;5020704;28;20202;-67
2023/10/27 00:52:19;;;;;;;4.75;1.70;;;12.60;99.90;;;;;;5028383;28;20201;-67
2023/10/27 00:54:51;;;;;;;4.95;2.08;;;12.70;99.90;;;;;;5022704;28;20445;-66
2023/10/27 00:57:18;;;;;;;3.75;1.90;;;12.70;99.90;;;;;;5032272;28;20271;-68
2023/10/27 00:59:44;;;;;;;3.17;1.83;;;12.70;99.90;;;;;;5030794;28;20182;-67
2023/10/27 01:02:09;;;;;;;3.55;1.95;;;12.70;99.90;;;;;;5023836;28;20224;-66
2023/10/27 01:04:36;;;;;;;3.75;2.10;;;12.70;99.90;;;;;;5035143;28;20188;-67
2023/10/27 01:07:03;;;;;;;3.83;2.00;;;12.70;99.90;;;;;;5032127;28;20178;-66
2023/10/27 01:09:29;;;;;;;4.38;2.10;;;12.70;99.90;;;;;;5028646;28;20206;-69
2023/10/27 01:11:55;;;;;;;3.60;1.90;;;12.70;99.90;;;;;;5028115;28;20285;-69
2023/10/27 01:14:20;;;;;;;3.47;1.73;;;12.80;99.90;;;;;;5030089;28;20205;-67
2023/10/27 01:16:46;;;;;;;3.70;2.00;;;12.80;99.90;;;;;;5032624;28;20209;-67
2023/10/27 01:19:12;;;;;;;4.80;2.00;;;12.80;99.90;;;;;;5034432;28;20190;-67
2023/10/27 01:21:37;;;;;;;5.85;1.90;;;12.80;99.90;;;;;;5033410;28;20182;-69
2023/10/27 01:24:04;;;;;;;2.72;1.92;;;12.80;99.90;;;;;;5029488;28;20183;-67
2023/10/27 01:26:30;;;;;;;3.58;1.90;;;12.80;99.90;;;;;;5032776;28;20178;-65
2023/10/27 01:28:55;;;;;;;4.22;2.20;;;12.90;99.90;;;;;;5034131;28;20189;-66
2023/10/27 01:31:25;;;;;;;6.93;2.25;;;12.80;99.90;;;;;;5033631;28;20291;-67
2023/10/27 01:33:50;;;;;;;4.80;2.10;;;12.80;99.90;;;;;;5027990;28;20179;-66
2023/10/27 01:36:18;;;;;;;3.97;2.30;;;12.90;99.90;;;;;;5030881;28;20480;-66
2023/10/27 01:38:44;;;;;;;4.28;2.17;;;12.80;99.90;;;;;;5027531;28;20195;-67
2023/10/27 01:41:09;;;;;;;4.05;2.17;;;12.80;99.90;;;;;;5034304;28;20192;-66
2023/10/27 01:43:35;;;;;;;3.33;2.03;;;12.80;99.90;;;;;;5032400;28;20210;-67
2023/10/27 01:46:03;;;;;;;6.00;2.25;;;12.80;99.90;;;;;;5022391;28;20179;-66
2023/10/27 01:48:28;;;;;;;3.47;1.90;;;12.80;99.90;;;;;;5034668;28;20200;-67
2023/10/27 01:50:55;;;;;;;3.97;2.33;;;12.80;99.90;;;;;;5034735;28;20206;-67
2023/10/27 01:53:23;;;;;;;4.28;2.00;;;12.80;99.90;;;;;;5030710;28;20330;-66
2023/10/27 01:55:51;;;;;;;2.58;1.65;;;12.80;99.90;;;;;;5030916;28;20178;-67
2023/10/27 01:58:16;;;;;;;5.00;2.35;;;12.80;99.90;;;;;;5024191;28;20190;-67
2023/10/27 02:00:42;;;;;;;3.47;1.95;;;12.80;99.90;;;;;;5027067;28;20292;-67
2023/10/27 02:03:08;;;;;;;4.28;2.00;;;12.80;99.90;;;;;;5035895;28;20206;-67
2023/10/27 02:05:33;;;;;;;4.45;2.10;;;12.80;99.90;;;;;;5020040;28;20190;-67
2023/10/27 02:08:00;;;;;;;5.70;2.03;;;12.80;99.90;;;;;;5026738;28;20456;-66
2023/10/27 02:10:25;;;;;;;5.25;2.20;;;12.70;99.90;;;;;;5026603;28;20255;-66
2023/10/27 02:12:51;;;;;;;3.55;2.03;;;12.70;99.90;;;;;;5036581;28;20178;-66
2023/10/27 02:15:17;;;;;;;4.07;1.77;;;12.70;99.90;;;;;;5035902;28;20175;-66
2023/10/27 02:17:45;;;;;;;4.82;1.92;;;12.70;99.90;;;;;;5030558;28;20226;-67
2023/10/27 02:20:13;;;;;;;6.15;1.80;;;12.70;99.90;;;;;;5035382;28;20174;-66
2023/10/27 02:22:39;;;;;;;3.80;2.00;;;12.70;99.90;;;;;;5030092;28;20178;-66
2023/10/27 02:25:07;;;;;;;3.88;2.00;;;12.70;99.90;;;;;;5034763;28;20181;-67
2023/10/27 02:27:38;;;;;;;3.58;2.20;;;12.70;99.90;;;;;;5033278;28;20266;-67
2023/10/27 02:30:08;;;;;;;3.33;1.63;;;12.70;99.90;;;;;;5036999;28;20186;-68
2023/10/27 02:32:36;;;;;;;4.80;1.90;;;12.70;99.90;;;;;;5031942;28;20185;-68
2023/10/27 02:35:04;;;;;;;3.17;1.60;;;12.70;99.90;;;;;;5029986;28;20171;-68
2023/10/27 02:37:32;;;;;;;5.45;1.88;;;12.70;99.90;;;;;;5032742;28;20217;-67
2023/10/27 02:39:58;;;;;;;6.50;2.00;;;12.70;99.90;;;;;;5036330;28;20220;-66
2023/10/27 02:42:26;;;;;;;3.28;1.98;;;12.70;99.90;;;;;;5033114;28;20222;-67
2023/10/27 02:44:51;;;;;;;3.97;1.67;;;12.70;99.90;;;;;;5031777;28;20213;-69
2023/10/27 02:47:17;;;;;;;3.95;1.95;;;12.80;99.90;;;;;;5024711;28;20178;-66
2023/10/27 02:49:42;;;;;;;4.85;1.88;;;12.80;99.90;;;;;;5034043;28;20265;-66
2023/10/27 02:52:08;;;;;;;5.55;1.80;;;12.80;99.90;;;;;;5028689;28;20198;-67
2023/10/27 02:54:36;;;;;;;5.18;1.80;;;12.70;99.90;;;;;;5027668;28;20178;-66
2023/10/27 02:57:04;;;;;;;3.83;1.80;;;12.80;99.90;;;;;;5029246;28;20225;-66
2023/10/27 02:59:29;;;;;;;2.92;1.63;;;12.70;99.90;;;;;;5028422;28;20206;-66
2023/10/27 03:01:55;;;;;;;3.50;1.73;;;12.70;99.90;;;;;;5033490;28;20283;-67
2023/10/27 03:04:21;;;;;;;4.97;1.98;;;12.80;99.90;;;;;;5033502;28;20200;-67
2023/10/27 03:06:46;;;;;;;6.50;1.70;;;12.80;99.90;;;;;;5025745;28;20281;-66
2023/10/27 03:09:15;;;;;;;4.57;1.90;;;12.80;99.90;;;;;;5023476;28;20190;-66
2023/10/27 03:11:41;;;;;;;3.63;2.08;;;12.70;99.90;;;;;;5025698;28;20206;-66
2023/10/27 03:14:06;;;;;;;4.18;1.67;;;12.70;99.90;;;;;;5030262;28;20178;-66
2023/10/27 03:16:32;;;;;;;5.20;1.80;;;12.70;99.90;;;;;;5029312;28;20182;-66
2023/10/27 03:18:58;;;;;;;5.55;2.28;;;12.70;99.90;;;;;;5029080;28;20302;-67
2023/10/27 03:21:26;;;;;;;4.65;2.25;;;12.70;99.90;;;;;;5024936;28;20270;-66
2023/10/27 03:23:54;;;;;;;3.50;1.80;;;12.70;99.90;;;;;;5028369;28;20213;-72
2023/10/27 03:26:22;;;;;;;6.13;1.80;;;12.70;99.90;;;;;;5031382;28;20182;-73
2023/10/27 03:28:50;;;;;;;4.13;1.63;;;12.80;99.90;;;;;;5029270;28;20186;-74
2023/10/27 03:31:20;;;;;;;3.08;1.77;;;12.80;99.90;;;;;;5021161;28;20202;-71
2023/10/27 03:33:51;;;;;;;3.28;1.70;;;12.70;99.90;;;;;;5024911;28;20232;-69
2023/10/27 03:36:17;;;;;;;4.20;1.77;;;12.80;99.90;;;;;;5031105;28;20190;-71
2023/10/27 03:38:43;;;;;;;8.27;1.98;;;12.70;99.90;;;;;;5022372;28;20445;-72
2023/10/27 03:41:10;;;;;;;4.63;1.98;;;12.70;99.90;;;;;;5031636;28;20178;-73
2023/10/27 03:43:36;;;;;;;3.90;1.90;;;12.70;99.90;;;;;;5031273;28;20174;-73
2023/10/27 03:46:02;;;;;;;4.20;2.00;;;12.70;99.90;;;;;;5025473;28;20205;-72
2023/10/27 03:48:34;;;;;;;3.83;2.20;;;12.70;99.90;;;;;;5028370;28;20339;-71
2023/10/27 03:51:03;;;;;;;4.78;2.08;;;12.70;99.90;;;;;;5023315;28;20296;-73
2023/10/27 03:53:31;;;;;;;4.57;2.40;;;12.70;99.90;;;;;;5026777;28;20205;-73
2023/10/27 03:55:56;;;;;;;3.88;2.05;;;12.70;99.90;;;;;;5033912;28;20189;-72
2023/10/27 03:58:22;;;;;;;4.45;2.20;;;12.60;99.90;;;;;;5026689;28;20174;-69
2023/10/27 04:00:48;;;;;;;4.05;1.73;;;12.80;99.90;;;;;;5029760;28;20184;-74
2023/10/27 04:03:13;;;;;;;5.03;1.95;;;12.80;99.90;;;;;;5031431;28;20209;-76
2023/10/27 04:05:42;;;;;;;4.93;2.22;;;12.70;99.90;;;;;;5033343;28;20209;-74
2023/10/27 04:08:10;;;;;;;5.57;2.60;;;12.70;99.90;;;;;;5022435;28;20174;-74
2023/10/27 04:10:41;;;;;;;5.53;2.28;;;12.70;99.90;;;;;;5026365;28;20309;-74
2023/10/27 04:13:09;;;;;;;3.53;1.90;;;12.70;99.90;;;;;;5032659;28;20240;-75
2023/10/27 04:15:35;;;;;;;5.43;2.20;;;12.80;99.90;;;;;;5025633;28;20196;-75
2023/10/27 04:18:03;;;;;;;6.18;2.15;;;12.70;99.90;;;;;;5032870;28;20476;-73
2023/10/27 04:20:31;;;;;;;5.03;1.90;;;12.70;99.90;;;;;;5029680;28;20230;-72
2023/10/27 04:22:57;;;;;;;9.30;2.45;;;12.70;99.90;;;;;;5027024;28;20232;-75
2023/10/27 04:25:23;;;;;;;5.40;2.22;;;12.70;99.90;;;;;;5029757;28;20210;-75
2023/10/27 04:27:48;;;;;;;5.72;2.47;;;12.70;99.90;;;;;;5033170;28;20178;-71
2023/10/27 04:30:15;;;;;;;10.55;5.88;;;12.70;99.90;;;;;;5022961;28;20178;-72
2023/10/27 04:32:45;;;;;;;11.75;6.95;;;12.70;99.90;;;;;;5032869;28;20174;-75
2023/10/27 04:35:14;;;;;;;5.85;3.50;;;12.70;99.90;;;;;;5029978;28;20174;-75
2023/10/27 04:37:40;;;;;;;7.13;3.65;;;12.70;99.90;;;;;;5025762;28;20415;-73
2023/10/27 04:40:09;;;;;;;7.07;3.17;;;12.70;99.90;;;;;;5031405;28;20487;-73
2023/10/27 04:42:34;;;;;;;7.97;3.20;;;12.70;99.90;;;;;;5028790;28;20189;-74
2023/10/27 04:45:02;;;;;;;4.15;2.60;;;12.70;99.90;;;;;;5034329;28;20186;-73
2023/10/27 04:47:28;;;;;;;6.35;2.60;;;12.70;99.90;;;;;;5033877;28;20370;-72
2023/10/27 04:49:56;;;;;;;3.35;2.20;;;12.70;99.90;;;;;;5028054;28;20177;-74
2023/10/27 04:52:21;;;;;;;6.53;2.63;;;12.70;99.90;;;;;;5030032;28;20260;-77
2023/10/27 04:54:49;;;;;;;6.65;2.42;;;12.70;99.90;;;;;;5029681;28;20198;-77
2023/10/27 04:57:15;;;;;;;12.43;5.93;;;12.70;99.90;;;;;;5020987;28;20274;-77
2023/10/27 04:59:40;;;;;;;7.65;3.97;;;12.70;99.90;;;;;;5030953;28;20265;-76
2023/10/27 05:02:06;;;;;;;6.00;3.22;;;12.70;99.90;;;;;;5024075;28;20289;-75
2023/10/27 05:04:36;;;;;;;5.57;2.50;;;12.70;99.90;;;;;;5033558;28;20279;-76
2023/10/27 05:07:05;;;;;;;5.60;2.70;;;12.70;99.90;;;;;;5030574;28;20198;-77
2023/10/27 05:09:32;;;;;;;3.60;2.20;;;12.70;99.90;;;;;;5033801;28;20240;-76
2023/10/27 05:11:57;;;;;;;4.15;2.10;;;12.70;99.90;;;;;;5034063;28;20438;-75
2023/10/27 05:14:26;;;;;;;5.05;2.33;;;12.70;99.90;;;;;;5033969;28;20285;-76
2023/10/27 05:16:56;;;;;;;4.30;1.95;;;12.80;99.90;;;;;;5034100;28;20197;-75
2023/10/27 05:19:24;;;;;;;5.13;2.17;;;12.70;99.90;;;;;;5034469;28;20174;-76
2023/10/27 05:21:50;;;;;;;5.15;2.03;;;12.70;99.90;;;;;;5034671;28;20198;-75
2023/10/27 05:24:15;;;;;;;3.65;2.00;;;12.60;99.90;;;;;;5033990;28;20243;-72
2023/10/27 05:26:41;;;;;;;5.78;2.30;;;12.70;99.90;;;;;;5031089;28;20214;-75
2023/10/27 05:29:07;;;;;;;4.93;2.40;;;12.70;99.90;;;;;;5034934;28;20190;-77
2023/10/27 05:31:34;;;;;;;4.22;2.15;;;12.60;99.90;;;;;;5034982;28;20288;-75
2023/10/27 05:34:05;;;;;;;4.88;2.08;;;12.60;99.90;;;;;;5034549;28;20201;-76
2023/10/27 05:36:31;;;;;;;5.18;2.20;;;12.60;99.90;;;;;;5031866;28;20189;-78
2023/10/27 05:38:56;;;;;;;3.95;2.00;;;12.60;99.90;;;;;;5034626;28;20186;-77
2023/10/27 05:41:22;;;;;;;3.25;2.08;;;12.60;99.90;;;;;;5039143;28;20177;-76
2023/10/27 05:43:51;;;;;;;4.60;2.20;;;12.60;99.90;;;;;;5038763;28;20279;-76
2023/10/27 05:46:18;;;;;;;5.03;2.05;;;12.60;99.90;;;;;;5037742;28;20208;-77
2023/10/27 05:48:49;;;;;;;4.13;2.00;;;12.60;99.90;;;;;;5037711;28;20174;-77
2023/10/27 05:51:15;;;;;;;2.85;1.98;;;12.60;99.90;;;;;;5037805;28;20216;-75
2023/10/27 05:53:46;;;;;;;3.38;2.13;;;12.60;99.90;;;;;;5037835;28;20186;-75
2023/10/27 05:56:11;;;;;;;5.90;2.33;;;12.60;99.90;;;;;;5037577;28;20184;-75
2023/10/27 05:58:37;;;;;;;4.55;2.15;;;12.60;99.90;;;;;;5037454;28;20260;-76
2023/10/27 06:01:05;;;;;;;3.90;2.38;;;12.50;99.90;;;;;;5037512;28;20182;-75
2023/10/27 06:03:30;;;;;;;4.93;2.35;;;12.60;99.90;;;;;;5033607;28;20198;-75
2023/10/27 06:05:56;;;;;;;6.10;2.30;;;12.50;99.90;;;;;;5037249;28;20173;-75
2023/10/27 06:08:21;;;;;;;3.88;2.03;;;12.50;99.90;;;;;;5025822;28;20178;-74
2023/10/27 06:10:49;;;;;;;6.05;3.13;;;12.50;99.90;;;;;;5037018;28;20205;-74
2023/10/27 06:13:15;;;;;;;4.20;2.45;;;12.50;99.90;;;;;;5037156;28;20371;-76
2023/10/27 06:15:43;;;;;;;3.22;2.30;;;12.50;99.90;;;;;;5037844;28;20248;-76
2023/10/27 06:18:09;;;;;;;5.75;2.05;;;12.50;99.90;;;;;;5036995;28;20174;-74
2023/10/27 06:20:34;;;;;;;2.83;1.95;;;12.50;99.90;;;;;;5036850;28;20178;-77
2023/10/27 06:23:02;;;;;;;4.72;2.20;;;12.50;99.90;;;;;;5037179;28;20170;-76
2023/10/27 06:25:31;;;;;;;3.88;2.58;;;12.50;99.90;;;;;;5036762;28;20277;-75
2023/10/27 06:27:59;;;;;;;7.15;2.70;;;12.50;99.90;;;;;;5037250;28;20400;-75
2023/10/27 06:30:24;;;;;;;5.07;2.25;;;12.50;99.90;;;;;;5037180;28;20178;-76
2023/10/27 06:32:50;;;;;;;3.80;2.20;;;12.50;99.90;;;;;;5036871;28;20208;-77
2023/10/27 06:35:16;;;;;;;4.45;2.55;;;12.40;99.90;;;;;;5036896;28;20187;-76
2023/10/27 06:37:41;;;;;;;3.38;1.98;;;12.50;99.90;;;;;;5036377;28;20205;-77
2023/10/27 06:40:10;;;;;;;3.70;2.15;;;12.40;99.90;;;;;;5036954;28;20174;-76
2023/10/27 06:42:36;;;;;;;3.63;2.13;;;12.50;99.90;;;;;;5036904;28;20228;-76
2023/10/27 06:45:03;;;;;;;2.90;2.20;;;12.40;99.90;;;;;;5036736;28;20197;-76
2023/10/27 06:47:29;;;;;;;3.28;2.38;;;12.50;99.90;;;;;;5036862;28;20174;-76
2023/10/27 06:49:58;;;;;;;4.15;2.30;;;12.40;99.90;;;;;;5036364;28;20323;-76
2023/10/27 06:52:28;;;;;;;4.90;2.40;;;12.60;99.90;;;;;;5035952;28;20258;-76
2023/10/27 06:54:59;;;;;;;2.90;2.20;;;12.50;99.90;;;;;;5036750;28;20185;-73
2023/10/27 06:57:29;;;;;;;4.70;1.95;;;12.50;99.90;;;;;;5036658;28;20185;-75
2023/10/27 06:59:56;;;;;;;3.63;2.28;;;12.50;99.90;;;;;;5016663;28;20170;-75
2023/10/27 07:02:24;;;;;;;3.63;1.92;;;12.50;99.90;;;;;;5018828;28;20240;-74
2023/10/27 07:04:50;;;;;;;3.97;1.90;;;12.50;99.90;;;;;;5036428;28;20177;-76
2023/10/27 07:07:18;;;;;;;3.58;2.33;;;12.50;99.90;;;;;;5035472;28;20189;-71
2023/10/27 07:09:44;;;;;;;2.78;2.00;;;12.40;99.90;;;;;;5027467;28;20201;-75
2023/10/27 07:12:10;;;;;;;3.22;2.08;;;12.40;99.90;;;;;;5035670;28;20225;-77
2023/10/27 07:14:38;;;;;;;3.17;1.77;;;12.50;99.90;;;;;;5035829;28;20202;-76
2023/10/27 07:17:04;;;;;;;3.60;1.90;;;12.50;99.90;;;;;;5031966;28;20185;-76
2023/10/27 07:19:36;;;;;;;3.67;1.95;;;12.50;99.90;;;;;;5020976;28;20178;-76
2023/10/27 07:22:04;;;;;;;3.63;1.98;;;12.50;99.90;;;;;;5036111;28;20194;-74
2023/10/27 07:24:32;;;;;;;2.65;1.90;;;12.50;99.90;;;;;;5036625;28;20236;-74
2023/10/27 07:26:58;;;;;;;3.55;1.90;;;12.50;99.90;;;;;;5035522;28;20182;-76
2023/10/27 07:29:23;;;;;;;3.22;1.80;;;12.50;99.90;;;;;;5036164;28;20181;-75
2023/10/27 07:31:51;;;;;;;3.55;1.65;;;12.50;99.90;;;;;;5035496;28;20237;-74
2023/10/27 07:34:17;;;;;;;2.63;1.88;;;12.50;99.90;;;;;;5035895;28;20205;-76
2023/10/27 07:36:42;;;;;;;4.53;1.98;;;12.50;99.90;;;;;;5036155;28;20166;-75
2023/10/27 07:39:09;;;;;;;2.40;1.90;;;12.50;99.90;;;;;;5045098;28;20242;-70
2023/10/27 07:41:37;;;;;;;2.08;1.48;;;12.50;99.90;;;;;;5052069;28;20186;-72
2023/10/27 07:44:04;;;;;;;2.47;1.75;;;12.50;99.90;;;;;;5049245;28;20221;-74
2023/10/27 07:46:29;;;;;;;2.70;1.52;;;12.50;99.90;;;;;;5023986;28;20187;-75
2023/10/27 07:49:00;;;;;;;3.15;1.70;;;12.60;99.90;;;;;;5017015;28;20193;-71
2023/10/27 07:51:30;;;;;;;2.33;1.58;;;12.60;99.90;;;;;;5016559;28;20213;-75
2023/10/27 07:53:58;;;;;;;1.98;1.38;;;12.60;99.90;;;;;;5029784;28;20247;-77
2023/10/27 07:56:24;;;;;;;3.78;2.00;;;12.60;99.90;;;;;;5035408;28;20190;-76
2023/10/27 07:58:50;;;;;;;2.17;1.50;;;12.70;99.90;;;;;;5024111;28;20238;-76
2023/10/27 08:01:15;;;;;;;1.70;1.30;;;12.60;99.90;;;;;;5037716;28;20220;-76
2023/10/27 08:03:41;;;;;;;2.17;1.40;;;12.70;99.90;;;;;;5045029;28;20166;-77
2023/10/27 08:06:08;;;;;;;1.83;1.40;;;12.70;99.90;;;;;;5035121;28;20174;-76
2023/10/27 08:08:34;;;;;;;1.40;1.30;;;12.70;99.90;;;;;;5031485;28;20199;-77
2023/10/27 08:11:04;;;;;;;1.92;1.35;;;12.80;99.90;;;;;;5015313;28;20202;-76
2023/10/27 08:13:33;;;;;;;1.55;1.25;;;12.80;99.90;;;;;;5015175;28;20190;-77
2023/10/27 08:16:04;;;;;;;1.63;1.23;;;12.80;99.90;;;;;;5017062;28;20293;-77
2023/10/27 08:18:30;;;;;;;3.58;1.67;;;12.80;99.90;;;;;;5034753;28;20172;-76
2023/10/27 08:20:56;;;;;;;2.05;1.20;;;12.90;99.90;;;;;;5034664;28;20186;-75
2023/10/27 08:23:24;;;;;;;1.67;1.20;;;12.90;99.90;;;;;;5034980;28;20177;-77
2023/10/27 08:25:51;;;;;;;1.83;1.27;;;12.90;99.90;;;;;;5034579;28;20178;-78
2023/10/27 08:28:20;;;;;;;2.03;1.05;;;13.00;99.90;;;;;;5034875;28;20193;-75
2023/10/27 08:30:46;;;;;;;1.92;1.02;;;13.00;99.90;;;;;;5034482;28;20237;-78
2023/10/27 08:33:14;;;;;;;1.58;1.05;;;13.00;99.90;;;;;;5034011;28;20228;-71
2023/10/27 08:35:42;;;;;;;1.52;1.10;;;13.00;99.90;;;;;;5034533;28;20232;-76
2023/10/27 08:38:08;;;;;;;1.58;1.02;;;13.00;99.90;;;;;;5034375;28;20189;-76
2023/10/27 08:40:37;;;;;;;1.15;0.90;;;13.00;99.90;;;;;;5034451;28;20197;-76
2023/10/27 08:43:06;;;;;;;2.05;1.00;;;13.10;99.90;;;;;;5034794;28;20198;-76
2023/10/27 08:45:37;;;;;;;1.20;0.80;;;13.10;99.90;;;;;;5034987;28;20214;-75
2023/10/27 08:48:06;;;;;;;1.98;1.08;;;13.10;99.90;;;;;;5035531;28;20208;-76
2023/10/27 08:50:31;;;;;;;1.38;0.90;;;13.10;99.90;;;;;;5036042;28;20268;-75
2023/10/27 08:52:58;;;;;;;2.05;1.00;;;13.20;99.90;;;;;;5034981;28;20331;-76
2023/10/27 08:55:25;;;;;;;1.30;0.88;;;13.20;99.90;;;;;;5034612;28;20193;-76
2023/10/27 08:57:56;;;;;;;1.88;1.00;;;13.20;99.90;;;;;;5034623;28;20193;-76
2023/10/27 09:00:24;;;;;;;1.25;1.02;;;13.20;99.90;;;;;;5034627;28;20289;-75
2023/10/27 09:02:50;;;;;;;1.50;1.00;;;13.30;99.90;;;;;;5032339;28;20170;-73
2023/10/27 09:05:15;;;;;;;2.20;1.42;;;13.30;99.90;;;;;;5014744;28;20185;-75
2023/10/27 09:07:41;;;;;;;1.67;1.00;;;13.40;99.90;;;;;;5019825;28;20496;-75
2023/10/27 09:10:10;;;;;;;1.20;0.98;;;13.40;99.90;;;;;;5034494;28;20181;-76
2023/10/27 09:12:39;;;;;;;1.00;0.90;;;13.50;99.90;;;;;;5034689;28;20214;-76
2023/10/27 09:15:12;;;;;;;1.63;1.00;;;13.50;99.90;;;;;;5036030;28;20174;-76
2023/10/27 09:17:58;;;;;;;1.27;0.80;;;13.50;99.90;;;;;;5038537;28;20220;-76
2023/10/27 09:20:27;;;;;;;1.38;0.82;;;13.60;99.90;;;;;;5038464;28;20256;-77
2023/10/27 09:23:02;;;;;;;1.13;0.77;;;13.60;99.90;;;;;;5024951;28;20174;-76
2023/10/27 09:25:39;;;;;;;1.25;0.80;;;13.60;99.90;;;;;;5037889;28;20173;-76
2023/10/27 09:28:07;;;;;;;4.40;2.53;;;13.70;99.90;;;;;;5038182;28;20180;-77
2023/10/27 09:30:40;;;;;;;4.30;2.25;;;13.60;99.90;;;;;;5040487;28;20204;-77
2023/10/27 09:33:26;;;;;;;3.55;2.05;;;13.60;99.90;;;;;;5037500;28;20197;-74
2023/10/27 09:35:54;;;;;;;2.67;1.63;;;13.60;99.90;;;;;;5025832;28;20202;-76
2023/10/27 09:38:22;;;;;;;4.35;2.63;;;13.70;99.90;;;;;;5030804;28;20272;-77
2023/10/27 09:40:48;;;;;;;2.45;1.65;;;13.60;99.90;;;;;;5017758;28;20178;-75
2023/10/27 09:43:19;;;;;;;1.38;1.10;;;13.60;99.90;;;;;;5035022;28;20166;-76
2023/10/27 09:45:53;;;;;;;1.58;1.00;;;13.70;99.90;;;;;;5037011;28;20193;-76
2023/10/27 09:48:38;;;;;;;1.20;0.80;;;13.70;99.90;;;;;;5037337;28;20292;-77
2023/10/27 09:51:11;;;;;;;1.73;0.73;;;13.60;99.90;;;;;;5037485;28;20280;-76
2023/10/27 09:53:41;;;;;;;1.20;0.65;;;13.70;99.90;;;;;;5038238;28;20170;-78
2023/10/27 09:56:08;;;;;;;2.08;0.90;;;13.70;99.90;;;;;;5037107;28;20206;-76
2023/10/27 09:58:38;;;;;;;0.82;0.70;;;13.80;99.90;;;;;;5022015;28;20239;-78
2023/10/27 10:01:04;;;;;;;0.88;0.80;;;13.90;99.90;;;;;;5037028;28;20233;-77
2023/10/27 10:03:33;;;;;;;0.75;0.60;;;14.00;99.90;;;;;;5036045;28;20289;-74
2023/10/27 10:06:10;;;;;;;0.90;0.70;;;14.00;99.90;;;;;;5037250;28;20205;-78
2023/10/27 10:08:36;;;;;;;1.08;0.75;;;14.20;99.90;;;;;;5036919;28;20233;-79
2023/10/27 10:11:18;;;;;;;1.30;0.90;;;14.40;99.90;;;;;;5037228;28;20229;-76
2023/10/27 10:13:48;;;;;;;1.00;0.88;;;14.50;99.90;;;;;;5036978;28;20204;-77
2023/10/27 10:16:17;;;;;;;1.85;0.90;;;14.70;99.90;;;;;;5036893;28;20174;-74
2023/10/27 10:18:48;;;;;;;0.90;0.80;;;14.90;99.90;;;;;;5029483;28;20167;-77
2023/10/27 10:21:38;;;;;;;1.20;0.80;;;15.00;99.90;;;;;;5023693;28;20214;-77
2023/10/27 10:24:05;;;;;;;1.25;0.70;;;15.20;99.90;;;;;;5044181;28;20205;-78
2023/10/27 10:27:02;;;;;;;0.90;0.70;;;15.30;99.90;;;;;;5041967;28;20209;-75
2023/10/27 10:29:32;;;;;;;1.23;0.77;;;15.50;99.90;;;;;;5036821;28;20225;-75
2023/10/27 10:32:35;;;;;;;1.23;0.80;;;15.70;99.90;;;;;;5036116;28;20202;-78
2023/10/27 10:35:22;;;;;;;2.05;0.80;;;16.00;99.90;;;;;;5035248;28;20228;-76
2023/10/27 10:37:52;;;;;;;2.95;1.25;;;16.20;99.90;;;;;;5036381;28;20198;-78
2023/10/27 10:40:18;;;;;;;2.58;1.08;;;16.20;99.90;;;;;;5036444;28;20200;-74
2023/10/27 10:43:23;;;;;;;2.00;1.10;;;16.20;99.90;;;;;;5036371;28;20174;-75
2023/10/27 10:45:56;;;;;;;2.97;1.10;;;16.10;99.90;;;;;;5036438;28;20347;-73
2023/10/27 10:48:44;;;;;;;2.95;1.40;;;16.00;99.90;;;;;;5035841;28;20182;-69
2023/10/27 10:51:15;;;;;;;3.60;1.27;;;15.80;99.90;;;;;;5031830;28;20282;-71
2023/10/27 10:53:43;;;;;;;2.63;1.02;;;15.50;99.90;;;;;;5016572;28;20167;-72
2023/10/27 10:56:09;;;;;;;1.83;1.10;;;15.30;99.90;;;;;;5036141;28;20177;-73
2023/10/27 10:58:40;;;;;;;3.38;1.38;;;15.10;99.90;;;;;;5036117;28;20194;-70
2023/10/27 11:01:20;;;;;;;2.03;1.20;;;14.90;99.90;;;;;;5035916;28;20442;-74
2023/10/27 11:03:47;;;;;;;2.90;1.40;;;14.80;99.90;;;;;;5029732;28;20175;-73
2023/10/27 11:06:13;;;;;;;2.33;0.98;;;15.00;99.90;;;;;;5030996;28;20346;-73
2023/10/27 11:08:43;;;;;;;1.45;1.00;;;15.10;99.90;;;;;;5035787;28;20250;-75
2023/10/27 11:11:16;;;;;;;2.08;0.85;;;15.10;99.90;;;;;;5035541;28;20217;-76
2023/10/27 11:13:57;;;;;;;2.03;1.17;;;15.20;99.90;;;;;;5035904;28;20237;-75
2023/10/27 11:16:26;;;;;;;1.55;0.82;;;15.30;99.90;;;;;;5035761;28;20196;-74
2023/10/27 11:18:59;;;;;;;1.58;0.98;;;15.50;99.90;;;;;;5035261;28;20197;-78
2023/10/27 11:21:29;;;;;;;2.67;0.98;;;15.60;99.90;;;;;;5035575;28;20224;-75
2023/10/27 11:23:55;;;;;;;1.50;0.85;;;15.70;99.90;;;;;;5035224;28;20206;-73
2023/10/27 11:26:24;;;;;;;1.25;0.73;;;15.80;99.90;;;;;;5035583;28;20173;-76
2023/10/27 11:28:56;;;;;;;2.75;0.90;;;15.80;99.90;;;;;;5035409;28;20186;-74
2023/10/27 11:31:22;;;;;;;2.17;0.90;;;15.80;99.90;;;;;;5035978;28;20192;-74
2023/10/27 11:34:06;;;;;;;1.73;0.90;;;15.80;99.90;;;;;;5035233;28;20166;-75
2023/10/27 11:36:44;;;;;;;2.88;0.95;;;15.80;99.90;;;;;;5039456;28;20197;-76
2023/10/27 11:39:23;;;;;;;1.27;0.90;;;15.70;99.90;;;;;;5015500;28;20182;-75
2023/10/27 11:41:53;;;;;;;1.40;0.80;;;15.70;99.90;;;;;;5030052;28;20239;-76
2023/10/27 11:44:19;;;;;;;1.77;0.90;;;15.70;99.90;;;;;;5035520;28;20236;-74
2023/10/27 11:47:00;;;;;;;2.20;1.00;;;15.70;99.90;;;;;;5035542;28;20189;-74
2023/10/27 11:49:30;;;;;;;1.90;0.95;;;15.70;99.90;;;;;;5015664;28;20207;-74
2023/10/27 11:51:57;;;;;;;3.28;1.10;;;15.60;99.90;;;;;;5039103;28;20201;-75
2023/10/27 11:54:23;;;;;;;3.53;1.20;;;15.60;99.90;;;;;;5056291;28;20220;-75
2023/10/27 11:56:49;;;;;;;5.97;1.30;;;15.60;99.90;;;;;;5040687;28;20265;-76
2023/10/27 11:59:25;;;;;;;6.03;1.30;;;15.60;99.90;;;;;;5035145;28;20190;-76
2023/10/27 12:01:52;;;;;;;3.42;1.02;;;15.60;99.90;;;;;;5035249;28;20224;-75
2023/10/27 12:04:19;;;;;;;4.57;1.40;;;15.60;99.90;;;;;;5018248;28;20198;-75
2023/10/27 12:06:44;;;;;;;5.25;1.27;;;15.70;99.90;;;;;;5023827;28;20185;-76
2023/10/27 12:09:14;;;;;;;4.20;1.38;;;15.70;99.90;;;;;;5034952;28;20296;-77
2023/10/27 12:11:42;;;;;;;4.80;1.27;;;15.70;99.90;;;;;;5035105;28;20202;-76
2023/10/27 12:14:10;;;;;;;3.75;1.60;;;15.70;99.90;;;;;;5035227;28;20197;-74
2023/10/27 12:16:36;;;;;;;4.55;1.70;;;15.70;99.90;;;;;;5035328;28;20185;-74
2023/10/27 12:19:02;;;;;;;3.58;1.63;;;15.80;99.90;;;;;;5052540;28;20342;-75
2023/10/27 12:21:32;;;;;;;4.53;1.60;;;15.80;99.90;;;;;;5050455;28;20210;-75
2023/10/27 12:23:57;;;;;;;4.50;1.75;;;15.80;99.90;;;;;;5035080;28;20185;-73
2023/10/27 12:26:23;;;;;;;5.43;1.90;;;15.70;99.90;;;;;;5034850;28;20174;-76
2023/10/27 12:28:49;;;;;;;3.40;1.67;;;15.70;99.90;;;;;;5034772;28;20216;-76
2023/10/27 12:31:17;;;;;;;3.90;1.55;;;15.70;99.90;;;;;;5034793;28;20206;-76
2023/10/27 12:33:44;;;;;;;4.43;1.73;;;15.60;99.90;;;;;;5034693;28;20196;-77
2023/10/27 12:36:12;;;;;;;5.03;1.30;;;15.70;99.90;;;;;;5034628;28;20244;-73
2023/10/27 12:38:40;;;;;;;4.00;1.40;;;15.60;99.90;;;;;;5034456;28;20246;-74
2023/10/27 12:41:09;;;;;;;3.67;1.40;;;15.60;99.90;;;;;;5034452;28;20182;-74
2023/10/27 12:43:35;;;;;;;3.42;1.10;;;15.60;99.90;;;;;;5034578;28;20182;-74
2023/10/27 12:46:04;;;;;;;4.22;1.63;;;15.50;99.90;;;;;;5034556;28;20239;-75
2023/10/27 12:48:31;;;;;;;5.00;1.30;;;15.50;99.90;;;;;;5034464;28;20193;-77
2023/10/27 12:51:00;;;;;;;4.50;1.30;;;15.50;99.90;;;;;;5040711;28;20221;-74